sensor_id;sensor_type;location;lat;lon;timestamp;pressure;altitude;pressure_sealevel;temperature;humidity
23953;BME280;12163;49.316;6.092;2023-05-22T13:25:29;99051.91;;;29.00;37.64
23953;BME280;12163;49.316;6.092;2023-05-22T13:27:58;99043.47;;;29.07;37.75
23953;BME280;12163;49.316;6.092;2023-05-22T13:30:24;99044.66;;;29.32;37.04
23953;BME280;12163;49.316;6.092;2023-05-22T13:32:51;99048.50;;;29.42;36.07
23953;BME280;12163;49.316;6.092;2023-05-22T13:35:18;99038.13;;;29.46;35.70
23953;BME280;12163;49.316;6.092;2023-05-22T13:37:45;99042.84;;;29.49;34.57
23953;BME280;12163;49.316;6.092;2023-05-22T13:40:13;99046.38;;;29.75;33.23
23953;BME280;12163;49.316;6.092;2023-05-22T13:42:39;99044.88;;;29.90;32.80
23953;BME280;12163;49.316;6.092;2023-05-22T13:45:07;99037.19;;;29.98;32.97
23953;BME280;12163;49.316;6.092;2023-05-22T13:47:34;99037.38;;;29.87;33.23
23953;BME280;12163;49.316;6.092;2023-05-22T13:50:00;99034.31;;;29.82;33.05
23953;BME280;12163;49.316;6.092;2023-05-22T13:52:27;99025.78;;;29.69;32.78
23953;BME280;12163;49.316;6.092;2023-05-22T13:54:54;99022.31;;;29.85;33.62
23953;BME280;12163;49.316;6.092;2023-05-22T13:57:21;99027.69;;;29.95;34.21
23953;BME280;12163;49.316;6.092;2023-05-22T13:59:48;99026.59;;;30.12;33.74
23953;BME280;12163;49.316;6.092;2023-05-22T14:02:14;99027.09;;;30.27;33.13
23953;BME280;12163;49.316;6.092;2023-05-22T14:04:41;99026.69;;;30.28;32.77
23953;BME280;12163;49.316;6.092;2023-05-22T14:07:07;99019.41;;;30.34;32.96
23953;BME280;12163;49.316;6.092;2023-05-22T14:09:34;99022.41;;;30.43;33.16
23953;BME280;12163;49.316;6.092;2023-05-22T14:12:01;99044.28;;;30.80;33.16
23953;BME280;12163;49.316;6.092;2023-05-22T14:14:27;99029.75;;;30.53;33.64
23953;BME280;12163;49.316;6.092;2023-05-22T14:16:54;99035.97;;;29.99;33.98
23953;BME280;12163;49.316;6.092;2023-05-22T14:19:21;99047.31;;;29.65;34.97
23953;BME280;12163;49.316;6.092;2023-05-22T14:21:49;99036.84;;;29.96;34.16
23953;BME280;12163;49.316;6.092;2023-05-22T14:24:16;99041.66;;;30.15;33.58
23953;BME280;12163;49.316;6.092;2023-05-22T14:26:43;99041.31;;;30.32;33.88
23953;BME280;12163;49.316;6.092;2023-05-22T14:29:10;99025.25;;;30.59;33.37
23953;BME280;12163;49.316;6.092;2023-05-22T14:31:47;99048.28;;;30.40;33.35
23953;BME280;12163;49.316;6.092;2023-05-22T14:34:17;99049.53;;;30.20;33.63
23953;BME280;12163;49.316;6.092;2023-05-22T14:36:44;99057.50;;;29.75;34.84
23953;BME280;12163;49.316;6.092;2023-05-22T14:39:11;99054.41;;;29.70;35.12
23953;BME280;12163;49.316;6.092;2023-05-22T14:41:37;99056.34;;;30.15;34.61
23953;BME280;12163;49.316;6.092;2023-05-22T14:44:04;99053.03;;;30.43;33.79
23953;BME280;12163;49.316;6.092;2023-05-22T14:46:31;99043.88;;;30.62;33.07
23953;BME280;12163;49.316;6.092;2023-05-22T14:48:58;99052.72;;;30.18;33.81
23953;BME280;12163;49.316;6.092;2023-05-22T14:51:24;99043.44;;;29.82;35.33
23953;BME280;12163;49.316;6.092;2023-05-22T14:53:51;99042.31;;;30.22;34.50
23953;BME280;12163;49.316;6.092;2023-05-22T14:56:18;99045.03;;;30.45;34.24
23953;BME280;12163;49.316;6.092;2023-05-22T14:58:44;99050.31;;;30.20;34.99
23953;BME280;12163;49.316;6.092;2023-05-22T15:01:11;99053.41;;;30.65;34.73
23953;BME280;12163;49.316;6.092;2023-05-22T15:03:37;99043.00;;;31.20;33.97
23953;BME280;12163;49.316;6.092;2023-05-22T15:06:04;99042.31;;;31.48;33.15
23953;BME280;12163;49.316;6.092;2023-05-22T15:08:31;99042.88;;;31.75;33.18
23953;BME280;12163;49.316;6.092;2023-05-22T15:10:57;99045.28;;;31.89;32.68
23953;BME280;12163;49.316;6.092;2023-05-22T15:13:24;99044.38;;;31.92;32.38
23953;BME280;12163;49.316;6.092;2023-05-22T15:15:51;99043.69;;;32.04;32.78
23953;BME280;12163;49.316;6.092;2023-05-22T15:18:18;99040.88;;;32.04;32.99
23953;BME280;12163;49.316;6.092;2023-05-22T15:20:45;99032.63;;;32.29;32.36
23953;BME280;12163;49.316;6.092;2023-05-22T15:23:12;99037.81;;;32.43;32.51
23953;BME280;12163;49.316;6.092;2023-05-22T15:25:39;99049.47;;;32.54;32.43
23953;BME280;12163;49.316;6.092;2023-05-22T15:28:06;99051.81;;;32.55;32.38
23953;BME280;12163;49.316;6.092;2023-05-22T15:30:33;99048.38;;;32.64;32.63
23953;BME280;12163;49.316;6.092;2023-05-22T15:33:04;99053.06;;;32.54;31.58
23953;BME280;12163;49.316;6.092;2023-05-22T15:35:31;99042.69;;;32.39;32.15
23953;BME280;12163;49.316;6.092;2023-05-22T15:37:57;99051.88;;;31.95;33.02
23953;BME280;12163;49.316;6.092;2023-05-22T15:40:24;99058.19;;;31.83;33.27
23953;BME280;12163;49.316;6.092;2023-05-22T15:42:51;99062.03;;;31.73;33.07
23953;BME280;12163;49.316;6.092;2023-05-22T15:45:19;99072.06;;;31.86;32.81
23953;BME280;12163;49.316;6.092;2023-05-22T15:47:46;99059.34;;;31.85;33.32
23953;BME280;12163;49.316;6.092;2023-05-22T15:50:13;99057.06;;;31.80;33.06
23953;BME280;12163;49.316;6.092;2023-05-22T15:52:39;99058.13;;;31.70;33.48
23953;BME280;12163;49.316;6.092;2023-05-22T15:55:06;99059.50;;;31.78;32.91
23953;BME280;12163;49.316;6.092;2023-05-22T15:57:33;99074.22;;;31.63;32.65
23953;BME280;12163;49.316;6.092;2023-05-22T16:00:00;99062.63;;;31.48;32.94
23953;BME280;12163;49.316;6.092;2023-05-22T16:02:26;99062.03;;;31.41;33.46
23953;BME280;12163;49.316;6.092;2023-05-22T16:04:53;99084.41;;;31.38;33.17
23953;BME280;12163;49.316;6.092;2023-05-22T16:07:20;99076.13;;;31.18;33.47
23953;BME280;12163;49.316;6.092;2023-05-22T16:09:46;99063.25;;;31.05;33.46
23953;BME280;12163;49.316;6.092;2023-05-22T16:12:15;99073.34;;;30.99;34.01
23953;BME280;12163;49.316;6.092;2023-05-22T16:14:42;99088.41;;;31.01;33.83
23953;BME280;12163;49.316;6.092;2023-05-22T16:17:08;99083.47;;;31.09;33.65
23953;BME280;12163;49.316;6.092;2023-05-22T16:19:35;99084.41;;;31.02;33.91
23953;BME280;12163;49.316;6.092;2023-05-22T16:22:02;99088.41;;;31.01;33.56
23953;BME280;12163;49.316;6.092;2023-05-22T16:24:28;99086.41;;;31.21;33.75
23953;BME280;12163;49.316;6.092;2023-05-22T16:26:57;99098.69;;;31.40;33.43
23953;BME280;12163;49.316;6.092;2023-05-22T16:29:24;99091.50;;;31.58;33.28
23953;BME280;12163;49.316;6.092;2023-05-22T16:31:51;99092.38;;;31.71;33.09
23953;BME280;12163;49.316;6.092;2023-05-22T16:34:17;99090.66;;;31.77;33.67
23953;BME280;12163;49.316;6.092;2023-05-22T16:36:44;99087.31;;;31.66;33.26
23953;BME280;12163;49.316;6.092;2023-05-22T16:39:11;99086.44;;;31.53;33.79
23953;BME280;12163;49.316;6.092;2023-05-22T16:41:38;99089.22;;;31.37;33.71
23953;BME280;12163;49.316;6.092;2023-05-22T16:44:04;99086.06;;;31.35;34.17
23953;BME280;12163;49.316;6.092;2023-05-22T16:46:31;99095.66;;;31.34;34.17
23953;BME280;12163;49.316;6.092;2023-05-22T16:48:57;99094.63;;;31.44;33.93
23953;BME280;12163;49.316;6.092;2023-05-22T16:51:24;99093.00;;;31.11;34.13
23953;BME280;12163;49.316;6.092;2023-05-22T16:53:51;99098.75;;;30.65;35.23
23953;BME280;12163;49.316;6.092;2023-05-22T16:56:17;99093.78;;;30.53;35.93
23953;BME280;12163;49.316;6.092;2023-05-22T16:58:46;99099.03;;;30.71;35.35
23953;BME280;12163;49.316;6.092;2023-05-22T17:01:13;99094.44;;;30.80;35.84
23953;BME280;12163;49.316;6.092;2023-05-22T17:03:39;99091.66;;;30.80;35.21
23953;BME280;12163;49.316;6.092;2023-05-22T17:06:06;99089.38;;;30.56;35.66
23953;BME280;12163;49.316;6.092;2023-05-22T17:08:34;99090.22;;;30.33;36.05
23953;BME280;12163;49.316;6.092;2023-05-22T17:11:01;99094.97;;;30.13;36.57
23953;BME280;12163;49.316;6.092;2023-05-22T17:13:27;99091.22;;;30.00;36.62
23953;BME280;12163;49.316;6.092;2023-05-22T17:15:54;99095.81;;;30.10;36.73
23953;BME280;12163;49.316;6.092;2023-05-22T17:18:21;99099.81;;;30.09;36.50
23953;BME280;12163;49.316;6.092;2023-05-22T17:20:48;99102.47;;;29.93;36.97
23953;BME280;12163;49.316;6.092;2023-05-22T17:23:15;99101.59;;;29.73;37.34
23953;BME280;12163;49.316;6.092;2023-05-22T17:25:42;99100.47;;;29.18;38.53
23953;BME280;12163;49.316;6.092;2023-05-22T17:28:12;99117.91;;;28.59;39.18
23953;BME280;12163;49.316;6.092;2023-05-22T17:30:40;99102.22;;;28.05;40.03
23953;BME280;12163;49.316;6.092;2023-05-22T17:33:08;99110.81;;;27.77;39.95
23953;BME280;12163;49.316;6.092;2023-05-22T17:35:35;99114.63;;;27.39;41.08
23953;BME280;12163;49.316;6.092;2023-05-22T17:38:02;99112.06;;;27.11;41.94
23953;BME280;12163;49.316;6.092;2023-05-22T17:40:28;99107.38;;;26.94;42.21
23953;BME280;12163;49.316;6.092;2023-05-22T17:43:11;99119.34;;;26.70;43.21
23953;BME280;12163;49.316;6.092;2023-05-22T17:45:38;99117.84;;;26.48;43.52
23953;BME280;12163;49.316;6.092;2023-05-22T17:48:06;99105.19;;;26.33;44.16
23953;BME280;12163;49.316;6.092;2023-05-22T17:50:33;99112.38;;;26.20;43.96
23953;BME280;12163;49.316;6.092;2023-05-22T17:52:59;99098.97;;;26.01;44.81
23953;BME280;12163;49.316;6.092;2023-05-22T17:55:26;99115.16;;;25.79;45.20
23953;BME280;12163;49.316;6.092;2023-05-22T17:57:52;99106.84;;;25.51;45.70
23953;BME280;12163;49.316;6.092;2023-05-22T18:00:19;99113.13;;;25.27;46.52
23953;BME280;12163;49.316;6.092;2023-05-22T18:02:46;99110.72;;;25.15;46.45
23953;BME280;12163;49.316;6.092;2023-05-22T18:05:13;99111.47;;;24.98;46.58
23953;BME280;12163;49.316;6.092;2023-05-22T18:07:39;99119.75;;;24.91;47.03
23953;BME280;12163;49.316;6.092;2023-05-22T18:10:06;99122.44;;;24.77;47.32
23953;BME280;12163;49.316;6.092;2023-05-22T18:12:33;99130.31;;;24.68;47.48
23953;BME280;12163;49.316;6.092;2023-05-22T18:15:03;99128.69;;;24.56;47.90
23953;BME280;12163;49.316;6.092;2023-05-22T18:17:30;99142.72;;;24.41;48.38
23953;BME280;12163;49.316;6.092;2023-05-22T18:19:59;99147.38;;;24.26;48.73
23953;BME280;12163;49.316;6.092;2023-05-22T18:22:26;99148.06;;;24.13;49.19
23953;BME280;12163;49.316;6.092;2023-05-22T18:24:52;99149.56;;;24.00;49.77
23953;BME280;12163;49.316;6.092;2023-05-22T18:27:19;99151.06;;;23.91;49.89
23953;BME280;12163;49.316;6.092;2023-05-22T18:29:46;99160.41;;;23.79;49.84
23953;BME280;12163;49.316;6.092;2023-05-22T18:32:12;99164.19;;;23.64;50.27
23953;BME280;12163;49.316;6.092;2023-05-22T18:34:39;99171.25;;;23.58;50.57
23953;BME280;12163;49.316;6.092;2023-05-22T18:37:06;99174.34;;;23.53;50.56
23953;BME280;12163;49.316;6.092;2023-05-22T18:39:33;99174.19;;;23.39;50.64
23953;BME280;12163;49.316;6.092;2023-05-22T18:41:59;99186.56;;;23.19;50.93
23953;BME280;12163;49.316;6.092;2023-05-22T18:44:26;99188.75;;;23.07;51.38
23953;BME280;12163;49.316;6.092;2023-05-22T18:46:53;99196.13;;;22.99;51.37
23953;BME280;12163;49.316;6.092;2023-05-22T18:49:19;99199.63;;;22.96;51.64
23953;BME280;12163;49.316;6.092;2023-05-22T18:51:46;99206.66;;;22.90;51.93
23953;BME280;12163;49.316;6.092;2023-05-22T18:54:13;99213.63;;;22.84;52.04
23953;BME280;12163;49.316;6.092;2023-05-22T18:56:39;99220.97;;;22.73;52.46
23953;BME280;12163;49.316;6.092;2023-05-22T18:59:06;99216.41;;;22.58;52.80
23953;BME280;12163;49.316;6.092;2023-05-22T19:01:33;99235.09;;;22.46;53.12
23953;BME280;12163;49.316;6.092;2023-05-22T19:03:59;99237.34;;;22.40;53.23
23953;BME280;12163;49.316;6.092;2023-05-22T19:06:26;99236.50;;;22.36;53.54
23953;BME280;12163;49.316;6.092;2023-05-22T19:08:54;99238.81;;;22.34;53.29
23953;BME280;12163;49.316;6.092;2023-05-22T19:11:20;99240.31;;;22.28;53.82
23953;BME280;12163;49.316;6.092;2023-05-22T19:13:47;99251.91;;;22.19;54.04
23953;BME280;12163;49.316;6.092;2023-05-22T19:16:13;99255.78;;;22.14;54.24
23953;BME280;12163;49.316;6.092;2023-05-22T19:18:40;99256.38;;;22.04;54.58
23953;BME280;12163;49.316;6.092;2023-05-22T19:21:07;99249.13;;;21.93;54.98
23953;BME280;12163;49.316;6.092;2023-05-22T19:23:34;99247.72;;;21.80;55.00
23953;BME280;12163;49.316;6.092;2023-05-22T19:26:02;99246.44;;;21.74;55.25
23953;BME280;12163;49.316;6.092;2023-05-22T19:28:28;99251.78;;;21.67;55.96
23953;BME280;12163;49.316;6.092;2023-05-22T19:30:57;99244.66;;;21.62;56.23
23953;BME280;12163;49.316;6.092;2023-05-22T19:33:25;99257.06;;;21.56;56.33
23953;BME280;12163;49.316;6.092;2023-05-22T19:35:52;99259.31;;;21.51;56.38
23953;BME280;12163;49.316;6.092;2023-05-22T19:38:19;99262.34;;;21.46;56.74
23953;BME280;12163;49.316;6.092;2023-05-22T19:40:46;99265.41;;;21.41;57.18
23953;BME280;12163;49.316;6.092;2023-05-22T19:43:13;99261.28;;;21.31;57.11
23953;BME280;12163;49.316;6.092;2023-05-22T19:45:39;99273.72;;;21.25;57.71
23953;BME280;12163;49.316;6.092;2023-05-22T19:48:06;99277.47;;;21.17;57.59
23953;BME280;12163;49.316;6.092;2023-05-22T19:50:33;99285.63;;;21.14;58.10
23953;BME280;12163;49.316;6.092;2023-05-22T19:53:00;99280.44;;;21.09;57.96
23953;BME280;12163;49.316;6.092;2023-05-22T19:55:27;99291.75;;;21.07;58.05
23953;BME280;12163;49.316;6.092;2023-05-22T19:57:54;99294.50;;;21.07;58.12
23953;BME280;12163;49.316;6.092;2023-05-22T20:00:21;99292.09;;;21.06;58.33
23953;BME280;12163;49.316;6.092;2023-05-22T20:02:48;99293.56;;;21.00;58.08
23953;BME280;12163;49.316;6.092;2023-05-22T20:05:15;99294.28;;;20.97;58.42
23953;BME280;12163;49.316;6.092;2023-05-22T20:07:42;99295.44;;;20.96;58.63
23953;BME280;12163;49.316;6.092;2023-05-22T20:10:09;99297.38;;;20.95;58.61
23953;BME280;12163;49.316;6.092;2023-05-22T20:12:36;99294.13;;;20.90;58.41
23953;BME280;12163;49.316;6.092;2023-05-22T20:15:03;99296.78;;;20.86;58.38
23953;BME280;12163;49.316;6.092;2023-05-22T20:17:32;99288.47;;;20.83;58.91
23953;BME280;12163;49.316;6.092;2023-05-22T20:19:59;99294.66;;;20.80;58.81
23953;BME280;12163;49.316;6.092;2023-05-22T20:22:26;99293.69;;;20.72;59.24
23953;BME280;12163;49.316;6.092;2023-05-22T20:24:53;99292.81;;;20.68;59.24
23953;BME280;12163;49.316;6.092;2023-05-22T20:27:19;99299.81;;;20.66;59.44
23953;BME280;12163;49.316;6.092;2023-05-22T20:29:46;99313.00;;;20.60;59.40
23953;BME280;12163;49.316;6.092;2023-05-22T20:32:15;99316.81;;;20.56;59.74
23953;BME280;12163;49.316;6.092;2023-05-22T20:34:42;99310.88;;;20.54;59.65
23953;BME280;12163;49.316;6.092;2023-05-22T20:37:10;99329.31;;;20.53;59.63
23953;BME280;12163;49.316;6.092;2023-05-22T20:39:39;99324.16;;;20.52;59.92
23953;BME280;12163;49.316;6.092;2023-05-22T20:42:08;99338.59;;;20.49;60.22
23953;BME280;12163;49.316;6.092;2023-05-22T20:44:37;99339.28;;;20.46;60.34
23953;BME280;12163;49.316;6.092;2023-05-22T20:47:04;99344.78;;;20.46;60.34
23953;BME280;12163;49.316;6.092;2023-05-22T20:49:31;99344.59;;;20.39;60.82
23953;BME280;12163;49.316;6.092;2023-05-22T20:52:00;99351.16;;;20.35;60.93
23953;BME280;12163;49.316;6.092;2023-05-22T20:54:28;99348.66;;;20.30;60.86
23953;BME280;12163;49.316;6.092;2023-05-22T20:57:00;99356.00;;;20.26;61.16
23953;BME280;12163;49.316;6.092;2023-05-22T20:59:26;99361.28;;;20.19;61.56
23953;BME280;12163;49.316;6.092;2023-05-22T21:01:56;99363.84;;;20.12;61.80
23953;BME280;12163;49.316;6.092;2023-05-22T21:04:23;99371.88;;;20.05;62.01
23953;BME280;12163;49.316;6.092;2023-05-22T21:06:50;99379.53;;;19.99;62.04
23953;BME280;12163;49.316;6.092;2023-05-22T21:09:16;99377.75;;;19.91;62.61
23953;BME280;12163;49.316;6.092;2023-05-22T21:11:43;99374.38;;;19.82;62.67
23953;BME280;12163;49.316;6.092;2023-05-22T21:14:10;99377.38;;;19.77;63.06
23953;BME280;12163;49.316;6.092;2023-05-22T21:16:37;99369.75;;;19.71;63.14
23953;BME280;12163;49.316;6.092;2023-05-22T21:19:05;99371.94;;;19.65;63.64
23953;BME280;12163;49.316;6.092;2023-05-22T21:21:32;99369.91;;;19.62;63.37
23953;BME280;12163;49.316;6.092;2023-05-22T21:24:01;99364.69;;;19.57;63.61
23953;BME280;12163;49.316;6.092;2023-05-22T21:26:28;99360.25;;;19.53;63.67
23953;BME280;12163;49.316;6.092;2023-05-22T21:28:55;99360.50;;;19.48;63.84
23953;BME280;12163;49.316;6.092;2023-05-22T21:31:21;99360.81;;;19.46;64.02
23953;BME280;12163;49.316;6.092;2023-05-22T21:33:48;99358.34;;;19.41;64.11
23953;BME280;12163;49.316;6.092;2023-05-22T21:36:14;99362.03;;;19.33;64.08
23953;BME280;12163;49.316;6.092;2023-05-22T21:38:41;99364.75;;;19.33;63.98
23953;BME280;12163;49.316;6.092;2023-05-22T21:41:08;99378.00;;;19.31;64.41
23953;BME280;12163;49.316;6.092;2023-05-22T21:43:34;99385.28;;;19.27;64.34
23953;BME280;12163;49.316;6.092;2023-05-22T21:46:01;99382.78;;;19.22;64.69
23953;BME280;12163;49.316;6.092;2023-05-22T21:48:27;99381.88;;;19.18;64.69
23953;BME280;12163;49.316;6.092;2023-05-22T21:50:54;99388.34;;;19.14;64.56
23953;BME280;12163;49.316;6.092;2023-05-22T21:53:21;99395.22;;;19.08;64.55
23953;BME280;12163;49.316;6.092;2023-05-22T21:55:48;99400.91;;;19.03;64.83
23953;BME280;12163;49.316;6.092;2023-05-22T21:58:15;99394.06;;;18.97;65.49
23953;BME280;12163;49.316;6.092;2023-05-22T22:00:41;99407.66;;;18.93;65.58
23953;BME280;12163;49.316;6.092;2023-05-22T22:03:08;99400.59;;;18.92;65.61
23953;BME280;12163;49.316;6.092;2023-05-22T22:05:35;99401.38;;;18.93;65.74
23953;BME280;12163;49.316;6.092;2023-05-22T22:08:02;99399.00;;;18.91;65.84
23953;BME280;12163;49.316;6.092;2023-05-22T22:10:28;99413.34;;;18.88;65.58
23953;BME280;12163;49.316;6.092;2023-05-22T22:12:55;99408.53;;;18.85;66.36
23953;BME280;12163;49.316;6.092;2023-05-22T22:15:21;99414.25;;;18.80;66.17
23953;BME280;12163;49.316;6.092;2023-05-22T22:17:48;99401.72;;;18.79;66.59
23953;BME280;12163;49.316;6.092;2023-05-22T22:20:15;99413.47;;;18.80;66.55
23953;BME280;12163;49.316;6.092;2023-05-22T22:22:45;99427.47;;;18.78;66.19
23953;BME280;12163;49.316;6.092;2023-05-22T22:25:12;99418.81;;;18.76;67.43
23953;BME280;12163;49.316;6.092;2023-05-22T22:27:38;99420.41;;;18.77;67.14
23953;BME280;12163;49.316;6.092;2023-05-22T22:30:06;99415.38;;;18.79;66.88
23953;BME280;12163;49.316;6.092;2023-05-22T22:32:33;99416.06;;;18.76;67.21
23953;BME280;12163;49.316;6.092;2023-05-22T22:35:00;99425.88;;;18.77;67.11
23953;BME280;12163;49.316;6.092;2023-05-22T22:37:26;99429.75;;;18.76;67.15
23953;BME280;12163;49.316;6.092;2023-05-22T22:39:53;99429.75;;;18.76;67.25
23953;BME280;12163;49.316;6.092;2023-05-22T22:42:20;99434.06;;;18.77;67.35
23953;BME280;12163;49.316;6.092;2023-05-22T22:44:47;99431.34;;;18.77;67.60
23953;BME280;12163;49.316;6.092;2023-05-22T22:47:13;99435.53;;;18.75;67.32
23953;BME280;12163;49.316;6.092;2023-05-22T22:49:40;99437.03;;;18.73;67.42
23953;BME280;12163;49.316;6.092;2023-05-22T22:52:07;99439.78;;;18.73;67.81
23953;BME280;12163;49.316;6.092;2023-05-22T22:54:34;99438.19;;;18.72;67.94
23953;BME280;12163;49.316;6.092;2023-05-22T22:57:01;99441.94;;;18.67;68.09
23953;BME280;12163;49.316;6.092;2023-05-22T22:59:27;99435.69;;;18.67;68.10
23953;BME280;12163;49.316;6.092;2023-05-22T23:01:54;99438.41;;;18.67;67.91
23953;BME280;12163;49.316;6.092;2023-05-22T23:04:21;99441.16;;;18.67;68.09
23953;BME280;12163;49.316;6.092;2023-05-22T23:06:47;99441.16;;;18.67;67.98
23953;BME280;12163;49.316;6.092;2023-05-22T23:09:14;99438.88;;;18.69;67.95
23953;BME280;12163;49.316;6.092;2023-05-22T23:11:41;99439.66;;;18.69;68.50
23953;BME280;12163;49.316;6.092;2023-05-22T23:14:08;99437.28;;;18.68;68.21
23953;BME280;12163;49.316;6.092;2023-05-22T23:16:36;99445.47;;;18.68;68.79
23953;BME280;12163;49.316;6.092;2023-05-22T23:19:03;99441.59;;;18.69;68.74
23953;BME280;12163;49.316;6.092;2023-05-22T23:21:31;99437.28;;;18.68;68.49
23953;BME280;12163;49.316;6.092;2023-05-22T23:23:58;99440.00;;;18.68;68.24
23953;BME280;12163;49.316;6.092;2023-05-22T23:26:26;99436.47;;;18.67;68.53
23953;BME280;12163;49.316;6.092;2023-05-22T23:28:53;99443.41;;;18.65;68.56
23953;BME280;12163;49.316;6.092;2023-05-22T23:31:19;99441.56;;;18.57;68.58
23953;BME280;12163;49.316;6.092;2023-05-22T23:33:51;99439.84;;;18.52;69.01
23953;BME280;12163;49.316;6.092;2023-05-22T23:36:18;99439.75;;;18.49;69.22
23953;BME280;12163;49.316;6.092;2023-05-22T23:38:45;99440.06;;;18.47;69.10
23953;BME280;12163;49.316;6.092;2023-05-22T23:41:15;99432.91;;;18.43;69.01
23953;BME280;12163;49.316;6.092;2023-05-22T23:43:45;99440.16;;;18.39;69.80
23953;BME280;12163;49.316;6.092;2023-05-22T23:46:12;99437.66;;;18.34;69.46
23953;BME280;12163;49.316;6.092;2023-05-22T23:48:40;99440.63;;;18.29;69.36
23953;BME280;12163;49.316;6.092;2023-05-22T23:51:08;99442.41;;;18.25;69.63
23953;BME280;12163;49.316;6.092;2023-05-22T23:53:40;99444.09;;;18.17;70.05
23953;BME280;12163;49.316;6.092;2023-05-22T23:56:07;99455.69;;;18.14;70.15
23953;BME280;12163;49.316;6.092;2023-05-22T23:58:36;99453.28;;;18.13;69.91
